Time;durP1;ratioP1;P1;durP2;ratioP2;P2;SDS_P1;SDS_P2;PMS_P1;PMS_P2;Temp;Humidity;BMP_temperature;BMP_pressure;BME280_temperature;BME280_humidity;BME280_pressure;Samples;Min_cycle;Max_cycle;Signal;HPM_P1;HPM_P2
2021/07/16 00:00:13;;;;;;;11.53;10.43;;;;;;;26.42;61.32;100268.70;1758033;79;21113;-62
2021/07/16 00:02:41;;;;;;;12.33;10.90;;;;;;;26.39;61.31;100272.39;1694906;82;21130;-62
2021/07/16 00:05:09;;;;;;;13.98;10.65;;;;;;;26.39;61.31;100279.94;1755654;79;21134;-62
2021/07/16 00:07:37;;;;;;;12.63;9.93;;;;;;;26.43;60.87;100278.45;1756550;80;21043;-62
2021/07/16 00:10:07;;;;;;;16.05;11.90;;;;;;;26.45;60.91;100266.08;1752673;80;21697;-62
2021/07/16 00:12:35;;;;;;;15.00;11.20;;;;;;;26.46;60.76;100269.90;1755044;79;21065;-62
2021/07/16 00:15:04;;;;;;;18.98;11.22;;;;;;;26.44;59.95;100271.98;1759402;80;21046;-62
2021/07/16 00:17:30;;;;;;;15.03;10.95;;;;;;;26.44;59.41;100269.28;1754290;79;21099;-63
2021/07/16 00:19:57;;;;;;;14.23;10.68;;;;;;;26.44;59.66;100265.77;1757979;80;21070;-63
2021/07/16 00:22:23;;;;;;;15.18;11.70;;;;;;;26.42;59.98;100268.70;1757748;80;21458;-62
2021/07/16 00:24:50;;;;;;;12.03;10.70;;;;;;;26.40;60.03;100260.02;1732213;80;21142;-62
2021/07/16 00:27:17;;;;;;;12.10;10.60;;;;;;;26.36;59.72;100266.94;1752913;80;21059;-62
2021/07/16 00:29:45;;;;;;;21.27;12.10;;;;;;;26.32;59.37;100269.78;1741020;80;21082;-62
2021/07/16 00:32:11;;;;;;;16.52;11.93;;;;;;;26.27;59.94;100268.30;1732614;80;21155;-62
2021/07/16 00:34:38;;;;;;;22.00;12.00;;;;;;;26.24;60.48;100270.95;1753273;79;22120;-63
2021/07/16 00:37:06;;;;;;;19.92;11.38;;;;;;;26.26;60.95;100268.00;1751797;80;21082;-62
2021/07/16 00:39:34;;;;;;;17.42;11.53;;;;;;;26.28;60.18;100265.91;1757833;79;21058;-62
2021/07/16 00:42:01;;;;;;;15.72;11.00;;;;;;;26.28;60.01;100268.61;1753618;80;21102;-62
2021/07/16 00:44:28;;;;;;;17.27;11.97;;;;;;;26.25;60.06;100267.72;1755556;80;21092;-61
2021/07/16 00:46:55;;;;;;;19.85;11.63;;;;;;;26.22;60.05;100268.98;1757793;80;21075;-61
2021/07/16 00:49:21;;;;;;;18.48;11.53;;;;;;;26.22;61.34;100270.33;1747918;80;21326;-62
2021/07/16 00:51:47;;;;;;;18.07;11.22;;;;;;;26.21;62.38;100266.52;1756718;79;21066;-62
2021/07/16 00:54:14;;;;;;;11.53;9.10;;;;;;;26.23;62.13;100268.48;1750229;80;21304;-62
2021/07/16 00:56:41;;;;;;;14.05;9.20;;;;;;;26.27;60.54;100269.12;1746212;79;21599;-62
2021/07/16 00:59:08;;;;;;;14.58;9.60;;;;;;;26.32;60.71;100267.09;1766241;80;21121;-62
2021/07/16 01:01:34;;;;;;;13.10;10.08;;;;;;;26.32;60.13;100267.09;1760618;80;21686;-62
2021/07/16 01:04:02;;;;;;;10.68;8.80;;;;;;;26.29;59.98;100265.69;1770356;79;21109;-62
2021/07/16 01:06:28;;;;;;;12.65;8.43;;;;;;;26.26;57.61;100265.30;1769867;80;21085;-62
2021/07/16 01:08:55;;;;;;;17.77;10.18;;;;;;;26.23;58.04;100267.13;1768254;80;21054;-63
2021/07/16 01:11:22;;;;;;;16.17;9.55;;;;;;;26.21;59.34;100265.16;1770081;79;21107;-62
2021/07/16 01:13:50;;;;;;;12.90;9.43;;;;;;;26.16;59.13;100257.78;1740773;80;21126;-63
2021/07/16 01:16:16;;;;;;;11.35;9.23;;;;;;;26.11;59.25;100263.86;1742928;79;21137;-63
2021/07/16 01:18:43;;;;;;;13.50;10.15;;;;;;;26.08;59.21;100263.49;1760600;80;21082;-63
2021/07/16 01:21:12;;;;;;;14.13;10.15;;;;;;;26.04;59.19;100261.78;1763569;79;21094;-63
2021/07/16 01:23:39;;;;;;;13.03;9.73;;;;;;;25.99;59.06;100256.26;1765432;80;21382;-63
2021/07/16 01:26:06;;;;;;;11.65;9.38;;;;;;;25.93;57.87;100261.98;1744547;79;21097;-62
2021/07/16 01:28:38;;;;;;;13.32;9.10;;;;;;;25.90;58.44;100256.22;1711010;82;21566;-63
2021/07/16 01:31:06;;;;;;;11.97;9.15;;;;;;;25.90;59.25;100254.88;1766741;80;21057;-63
2021/07/16 01:33:32;;;;;;;13.28;9.25;;;;;;;25.93;59.19;100253.89;1769040;79;21050;-63
2021/07/16 01:35:59;;;;;;;10.18;8.63;;;;;;;25.95;59.13;100249.12;1764995;79;21082;-63
2021/07/16 01:38:27;;;;;;;11.88;9.15;;;;;;;25.98;58.90;100247.86;1765618;79;21097;-63
2021/07/16 01:40:55;;;;;;;13.43;9.83;;;;;;;25.96;58.92;100241.88;1769876;79;21121;-63
2021/07/16 01:43:23;;;;;;;11.40;8.28;;;;;;;25.91;59.14;100232.28;1764066;80;21078;-63
2021/07/16 01:45:50;;;;;;;12.63;9.10;;;;;;;25.87;59.17;100236.45;1709828;81;21531;-63
2021/07/16 01:48:16;;;;;;;10.98;8.93;;;;;;;25.83;59.35;100233.41;1764419;80;21067;-63
2021/07/16 01:50:48;;;;;;;12.25;9.60;;;;;;;25.78;59.05;100224.64;1711945;82;21553;-63
2021/07/16 01:53:21;;;;;;;11.48;9.40;;;;;;;25.79;58.83;100218.75;1768551;79;21054;-63
2021/07/16 01:55:45;;;;;;;13.22;10.00;;;;;;;25.75;58.67;100215.66;1763278;80;21109;-63
2021/07/16 01:58:13;;;;;;;10.40;8.85;;;;;;;25.72;58.34;100212.59;1713866;81;21606;-63
2021/07/16 02:00:43;;;;;;;10.78;8.48;;;;;;;25.69;58.39;100213.08;1705567;83;21139;-63
2021/07/16 02:03:11;;;;;;;11.55;8.93;;;;;;;25.65;57.47;100209.99;1718069;81;21114;-63
2021/07/16 02:05:40;;;;;;;16.97;9.33;;;;;;;25.64;57.02;100212.91;1699251;82;21117;-63
2021/07/16 02:08:17;;;;;;;14.18;8.98;;;;;;;25.61;56.51;100211.51;1714809;82;21608;-63
2021/07/16 02:10:49;;;;;;;14.18;8.93;;;;;;;25.58;56.60;100214.65;1721307;83;21586;-63
2021/07/16 02:13:15;;;;;;;10.82;8.48;;;;;;;25.57;56.55;100219.72;1718808;81;21708;-62
2021/07/16 02:15:44;;;;;;;10.10;7.87;;;;;;;25.55;56.16;100217.79;1716264;83;21067;-63
2021/07/16 02:18:11;;;;;;;13.72;8.35;;;;;;;25.54;55.59;100215.62;1696128;83;21620;-63
2021/07/16 02:20:39;;;;;;;10.50;7.45;;;;;;;25.50;54.76;100221.69;1692121;83;21431;-62
2021/07/16 02:23:17;;;;;;;9.20;7.00;;;;;;;25.43;54.54;100212.33;1721682;81;21544;-62
2021/07/16 02:25:44;;;;;;;11.38;7.20;;;;;;;25.37;54.34;100210.03;1717974;81;21426;-62
2021/07/16 02:28:24;;;;;;;11.10;7.75;;;;;;;25.32;54.37;100211.22;1715283;82;21177;-62
2021/07/16 02:30:52;;;;;;;10.38;7.70;;;;;;;25.29;54.62;100211.67;1716646;81;21121;-62
2021/07/16 02:33:20;;;;;;;13.35;7.78;;;;;;;25.28;54.92;100207.85;1716384;83;21627;-62
2021/07/16 02:35:47;;;;;;;9.90;7.55;;;;;;;25.27;55.05;100203.50;1694459;82;21651;-63
2021/07/16 02:38:14;;;;;;;10.65;8.05;;;;;;;25.26;55.23;100197.30;1699146;83;21087;-63
2021/07/16 02:40:41;;;;;;;9.75;7.72;;;;;;;25.27;56.07;100205.69;1715557;83;21082;-63
2021/07/16 02:43:08;;;;;;;10.13;7.40;;;;;;;25.30;56.35;100204.41;1716827;82;21550;-63
2021/07/16 02:45:35;;;;;;;8.95;7.05;;;;;;;25.35;55.75;100196.47;1716386;83;21046;-62
2021/07/16 02:48:02;;;;;;;10.35;7.65;;;;;;;25.43;55.46;100198.87;1712165;82;21082;-63
2021/07/16 02:50:32;;;;;;;10.38;7.03;;;;;;;25.49;55.12;100195.28;1653777;84;21087;-62
2021/07/16 02:52:59;;;;;;;10.68;6.85;;;;;;;25.55;54.64;100200.28;1717282;83;21067;-63
2021/07/16 02:55:25;;;;;;;13.95;7.20;;;;;;;25.59;54.72;100197.45;1717078;81;21409;-63
2021/07/16 02:57:52;;;;;;;9.43;6.85;;;;;;;25.63;54.23;100199.16;1738492;80;21103;-62
2021/07/16 03:00:22;;;;;;;11.10;7.67;;;;;;;25.65;53.78;100205.14;1741949;81;21107;-62
2021/07/16 03:02:49;;;;;;;10.35;6.87;;;;;;;25.67;53.56;100199.83;1738589;82;21662;-62
2021/07/16 03:05:18;;;;;;;8.38;7.15;;;;;;;25.69;53.34;100206.34;1743776;80;21064;-62
2021/07/16 03:07:46;;;;;;;13.00;7.25;;;;;;;25.69;54.21;100209.85;1738040;80;21641;-62
2021/07/16 03:10:18;;;;;;;9.28;7.78;;;;;;;25.73;53.33;100213.72;1716518;82;21129;-62
2021/07/16 03:12:45;;;;;;;9.70;7.05;;;;;;;25.74;54.29;100214.03;1676406;84;21095;-65
2021/07/16 03:15:16;;;;;;;10.23;7.70;;;;;;;25.76;55.15;100216.50;1681974;83;21238;-63
2021/07/16 03:17:43;;;;;;;8.88;6.65;;;;;;;25.77;56.17;100210.89;1651605;85;21087;-64
2021/07/16 03:20:13;;;;;;;9.75;7.10;;;;;;;25.80;54.93;100220.91;1679416;84;21261;-63
2021/07/16 03:22:41;;;;;;;9.78;7.08;;;;;;;25.81;55.14;100219.87;1682990;84;21106;-64
2021/07/16 03:25:11;;;;;;;9.55;6.85;;;;;;;25.81;55.44;100227.95;1740531;80;21107;-62
2021/07/16 03:27:37;;;;;;;7.67;6.37;;;;;;;25.83;55.59;100224.50;1732279;81;21102;-62
2021/07/16 03:30:08;;;;;;;12.23;8.05;;;;;;;25.83;55.94;100223.97;1714598;82;21056;-61
2021/07/16 03:32:35;;;;;;;11.78;7.30;;;;;;;25.84;56.04;100220.73;1742557;81;21692;-61
2021/07/16 03:35:04;;;;;;;8.98;7.08;;;;;;;25.91;56.85;100232.28;1740485;81;21079;-62
2021/07/16 03:37:32;;;;;;;12.00;7.35;;;;;;;26.00;57.45;100239.01;1724997;80;21106;-62
2021/07/16 03:39:59;;;;;;;9.98;6.72;;;;;;;26.07;56.89;100234.88;1743872;80;21197;-64
2021/07/16 03:42:30;;;;;;;10.40;7.45;;;;;;;26.14;56.06;100239.13;1712855;82;21563;-64
2021/07/16 03:44:58;;;;;;;10.70;7.87;;;;;;;26.19;54.54;100239.77;1739971;81;21123;-62
2021/07/16 03:47:25;;;;;;;10.30;7.92;;;;;;;26.23;54.19;100230.73;1738364;80;21075;-63
2021/07/16 03:49:52;;;;;;;9.48;7.33;;;;;;;26.26;54.75;100238.33;1739161;80;21114;-63
2021/07/16 03:52:18;;;;;;;8.40;7.03;;;;;;;26.31;53.65;100248.74;1742988;81;21120;-64
2021/07/16 03:54:46;;;;;;;10.32;7.25;;;;;;;26.29;53.30;100245.46;1740867;81;21612;-64
2021/07/16 03:57:13;;;;;;;11.38;7.22;;;;;;;26.28;53.27;100242.45;1724872;79;21111;-63
2021/07/16 03:59:39;;;;;;;9.38;6.70;;;;;;;26.27;53.25;100241.33;1763859;80;21529;-62
2021/07/16 04:02:09;;;;;;;10.88;6.87;;;;;;;26.25;53.33;100249.66;1763167;79;21687;-65
2021/07/16 04:04:36;;;;;;;10.05;7.60;;;;;;;26.23;53.06;100244.20;1739351;80;21190;-65
2021/07/16 04:07:06;;;;;;;10.18;7.00;;;;;;;26.19;53.50;100247.05;1757603;80;21074;-65
2021/07/16 04:09:34;;;;;;;10.50;7.15;;;;;;;26.18;53.71;100250.81;1763198;78;21066;-64
2021/07/16 04:12:14;;;;;;;10.80;7.22;;;;;;;26.17;53.88;100245.11;1739743;80;21094;-63
2021/07/16 04:14:51;;;;;;;9.33;7.03;;;;;;;26.18;53.89;100249.47;1756745;79;21140;-65
2021/07/16 04:17:22;;;;;;;9.88;6.95;;;;;;;26.21;54.00;100253.03;1757376;80;21316;-63
2021/07/16 04:19:51;;;;;;;14.63;8.78;;;;;;;26.27;53.98;100256.17;1765218;78;21109;-63
2021/07/16 04:22:19;;;;;;;19.80;7.70;;;;;;;26.34;53.33;100252.84;1760571;80;21062;-63
2021/07/16 04:24:46;;;;;;;11.03;7.37;;;;;;;26.37;53.06;100249.69;1762833;79;21067;-64
2021/07/16 04:27:13;;;;;;;9.75;7.45;;;;;;;26.41;53.13;100251.39;1764236;79;21125;-63
2021/07/16 04:29:41;;;;;;;10.68;6.75;;;;;;;26.45;53.13;100248.01;1769401;79;21381;-63
2021/07/16 04:32:08;;;;;;;9.45;8.03;;;;;;;26.49;52.90;100254.60;1746565;79;21058;-63
2021/07/16 04:34:37;;;;;;;8.68;6.75;;;;;;;26.53;52.61;100251.41;1771096;80;21560;-75
2021/07/16 04:37:05;;;;;;;8.88;7.08;;;;;;;26.56;52.80;100249.61;1769915;80;21734;-69
2021/07/16 04:39:34;;;;;;;8.50;6.83;;;;;;;26.57;52.72;100242.63;1764731;79;21549;-67
2021/07/16 04:42:01;;;;;;;8.48;6.87;;;;;;;26.59;52.83;100245.91;1756865;79;21909;-70
2021/07/16 04:44:27;;;;;;;9.78;7.70;;;;;;;26.64;53.07;100254.16;1768714;79;21084;-71
2021/07/16 04:46:56;;;;;;;11.83;7.15;;;;;;;26.69;52.96;100253.48;1758140;79;21046;-71
2021/07/16 04:49:22;;;;;;;10.48;6.33;;;;;;;26.74;52.82;100254.14;1766830;79;21362;-65
2021/07/16 04:51:49;;;;;;;14.07;7.20;;;;;;;26.77;52.76;100254.48;1775250;79;21057;-63
2021/07/16 04:54:16;;;;;;;12.23;6.78;;;;;;;26.82;52.75;100266.75;1745511;79;21234;-66
2021/07/16 04:56:44;;;;;;;9.18;7.47;;;;;;;26.89;52.26;100269.34;1724282;81;21090;-64
2021/07/16 04:59:10;;;;;;;9.73;7.45;;;;;;;26.95;52.21;100272.98;1754228;80;21062;-63
2021/07/16 05:01:38;;;;;;;14.23;7.70;;;;;;;27.00;52.01;100271.23;1739176;79;21058;-65
2021/07/16 05:04:05;;;;;;;9.70;6.90;;;;;;;27.04;52.04;100269.70;1692322;82;22484;-63
2021/07/16 05:06:31;;;;;;;12.13;7.00;;;;;;;27.09;52.02;100277.10;1737412;80;21114;-60
2021/07/16 05:08:59;;;;;;;9.58;6.97;;;;;;;27.15;52.16;100270.77;1728415;80;21097;-69
2021/07/16 05:23:15;;;;;;;9.43;6.58;;;;;;;28.88;48.88;100253.27;1779020;78;22219;-60
2021/07/16 05:25:42;;;;;;;11.28;7.58;;;;;;;29.08;48.40;100259.53;1753916;80;21560;-62
2021/07/16 05:28:08;;;;;;;9.45;7.42;;;;;;;29.08;48.39;100260.88;1761814;80;21134;-66
2021/07/16 05:30:35;;;;;;;10.10;7.30;;;;;;;29.06;47.92;100254.91;1766510;80;21509;-65
2021/07/16 05:33:01;;;;;;;11.20;7.25;;;;;;;29.04;47.81;100253.80;1719045;80;21128;-71
2021/07/16 05:35:28;;;;;;;10.80;8.13;;;;;;;29.01;47.42;100255.64;1754121;80;21058;-60
2021/07/16 05:37:56;;;;;;;10.50;7.10;;;;;;;28.95;47.10;100254.45;1755947;80;21037;-62
2021/07/16 05:40:23;;;;;;;10.98;7.05;;;;;;;28.86;47.76;100258.13;1714036;80;21105;-63
2021/07/16 05:42:50;;;;;;;10.68;7.55;;;;;;;28.82;47.39;100252.93;1748595;80;21108;-62
2021/07/16 05:45:17;;;;;;;12.53;6.90;;;;;;;28.79;47.76;100258.83;1748887;80;21160;-60
2021/07/16 05:47:43;;;;;;;10.43;7.20;;;;;;;28.79;47.60;100256.94;1752260;80;21069;-63
2021/07/16 05:50:10;;;;;;;8.20;6.03;;;;;;;28.76;47.82;100260.67;1757054;80;21069;-62
2021/07/16 05:52:36;;;;;;;9.88;5.85;;;;;;;28.72;47.69;100255.75;1749130;80;21572;-61
2021/07/16 05:55:04;;;;;;;10.95;7.10;;;;;;;28.73;47.96;100253.85;1751282;80;21064;-61
2021/07/16 05:57:31;;;;;;;10.53;6.75;;;;;;;28.77;47.79;100255.56;1755326;80;21088;-61
2021/07/16 05:59:58;;;;;;;11.55;7.20;;;;;;;28.81;47.80;100255.34;1751826;80;21033;-66
2021/07/16 06:02:26;;;;;;;9.45;6.03;;;;;;;28.86;47.83;100256.77;1751980;80;21145;-62
2021/07/16 06:04:52;;;;;;;11.97;7.60;;;;;;;28.91;48.10;100252.24;1755487;80;21115;-62
2021/07/16 06:07:19;;;;;;;11.50;6.87;;;;;;;28.97;48.37;100252.34;1747434;80;21359;-68
2021/07/16 06:09:46;;;;;;;10.10;7.33;;;;;;;29.03;47.98;100256.23;1726396;80;21565;-61
2021/07/16 06:12:14;;;;;;;10.30;7.37;;;;;;;29.05;47.11;100255.95;1754628;80;21117;-61
2021/07/16 06:14:41;;;;;;;13.18;7.00;;;;;;;29.07;47.50;100250.59;1745961;80;22344;-62
2021/07/16 06:17:09;;;;;;;9.18;6.67;;;;;;;29.12;47.55;100252.56;1749942;80;21121;-64
2021/07/16 06:19:36;;;;;;;9.45;6.42;;;;;;;29.16;47.02;100244.75;1735885;80;21046;-63
2021/07/16 06:22:03;;;;;;;9.03;6.40;;;;;;;29.19;47.53;100252.42;1750294;80;21093;-64
2021/07/16 06:24:30;;;;;;;10.13;6.35;;;;;;;29.24;47.74;100249.78;1755551;80;21118;-63
2021/07/16 06:26:57;;;;;;;9.50;6.95;;;;;;;29.28;46.89;100251.71;1752645;80;21077;-62
2021/07/16 06:29:24;;;;;;;10.45;6.83;;;;;;;29.30;46.29;100250.66;1754201;80;21344;-62
2021/07/16 06:31:52;;;;;;;10.13;6.67;;;;;;;29.33;46.52;100251.52;1756304;80;21074;-61
2021/07/16 06:34:20;;;;;;;12.43;8.20;;;;;;;29.34;46.44;100244.49;1753534;80;21175;-61
2021/07/16 06:36:47;;;;;;;9.70;7.08;;;;;;;29.38;46.83;100246.97;1752144;80;21135;-67
2021/07/16 06:39:13;;;;;;;10.40;8.33;;;;;;;29.41;46.51;100251.89;1754548;80;21061;-63
2021/07/16 06:41:40;;;;;;;15.53;7.28;;;;;;;29.46;46.63;100257.37;1751743;80;21160;-63
2021/07/16 06:44:10;;;;;;;8.38;6.53;;;;;;;29.52;46.37;100256.09;1753102;80;21124;-64
2021/07/16 06:46:37;;;;;;;10.10;7.47;;;;;;;29.58;46.10;100253.19;1718717;81;21565;-62
2021/07/16 06:49:04;;;;;;;11.95;7.90;;;;;;;29.63;46.19;100257.31;1751800;80;21121;-64
2021/07/16 06:51:31;;;;;;;14.60;8.98;;;;;;;29.69;46.13;100261.44;1729831;80;21042;-63
2021/07/16 06:53:58;;;;;;;12.93;7.70;;;;;;;29.72;45.32;100253.62;1754837;80;21124;-63
2021/07/16 06:56:24;;;;;;;11.60;8.20;;;;;;;29.74;45.19;100252.01;1754099;80;21084;-62
2021/07/16 06:58:52;;;;;;;12.82;8.35;;;;;;;29.76;45.88;100250.70;1757851;80;21104;-64
2021/07/16 07:01:20;;;;;;;13.98;9.65;;;;;;;29.81;46.15;100251.33;1752842;80;21081;-63
2021/07/16 07:03:47;;;;;;;9.78;7.42;;;;;;;29.86;45.33;100250.03;1754330;80;21093;-61
2021/07/16 07:06:14;;;;;;;11.08;9.10;;;;;;;29.88;45.64;100245.71;1752147;80;21115;-63
2021/07/16 07:08:41;;;;;;;11.20;6.42;;;;;;;29.93;45.94;100256.61;1755873;80;21077;-62
2021/07/16 07:11:07;;;;;;;13.20;8.58;;;;;;;29.95;45.53;100249.84;1724854;80;21097;-61
2021/07/16 07:13:35;;;;;;;12.53;9.60;;;;;;;30.00;45.79;100249.89;1709138;81;21105;-64
2021/07/16 07:16:04;;;;;;;10.10;7.03;;;;;;;30.06;45.30;100250.78;1692779;82;21132;-62
2021/07/16 07:18:32;;;;;;;12.13;8.50;;;;;;;30.11;45.46;100252.19;1696415;83;21114;-64
2021/07/16 07:20:59;;;;;;;11.60;8.48;;;;;;;30.16;45.74;100252.24;1703479;82;21331;-64
2021/07/16 07:23:25;;;;;;;11.85;8.80;;;;;;;30.23;45.67;100253.91;1680963;82;22340;-64
2021/07/16 07:25:52;;;;;;;11.70;8.80;;;;;;;30.31;45.87;100260.23;1692629;83;21113;-61
2021/07/16 07:28:18;;;;;;;10.55;8.08;;;;;;;30.36;45.71;100257.59;1681690;83;21197;-63
2021/07/16 07:30:45;;;;;;;13.53;9.50;;;;;;;30.41;45.30;100256.83;1680633;83;22134;-63
2021/07/16 07:33:11;;;;;;;14.05;10.45;;;;;;;30.46;45.43;100255.52;1656511;85;21116;-63
2021/07/16 07:35:38;;;;;;;10.85;9.58;;;;;;;30.52;45.51;100256.66;1681456;83;21730;-63
2021/07/16 07:38:04;;;;;;;11.95;8.83;;;;;;;30.58;44.72;100257.54;1681773;83;21149;-63
2021/07/16 07:40:31;;;;;;;12.30;10.38;;;;;;;30.63;44.94;100260.81;1680733;83;21146;-63
2021/07/16 07:42:58;;;;;;;11.85;9.18;;;;;;;30.69;45.24;100265.22;1656517;83;21808;-65
2021/07/16 07:45:25;;;;;;;13.13;10.08;;;;;;;30.77;45.63;100259.30;1684855;83;21126;-62
2021/07/16 07:47:51;;;;;;;16.02;11.73;;;;;;;30.84;45.11;100261.80;1680318;83;21094;-63
2021/07/16 07:50:18;;;;;;;14.40;12.53;;;;;;;30.90;44.85;100263.45;1680195;83;21343;-64
2021/07/16 07:52:46;;;;;;;15.88;11.35;;;;;;;30.92;44.59;100258.59;1681576;83;21069;-65
2021/07/16 07:55:13;;;;;;;12.60;11.30;;;;;;;30.93;45.22;100254.27;1660348;83;21138;-64
2021/07/16 07:57:40;;;;;;;12.45;11.25;;;;;;;30.99;45.03;100262.48;1681451;83;21296;-63
2021/07/16 08:00:12;;;;;;;12.60;11.30;;;;;;;31.01;45.14;100263.84;1682414;83;21618;-64
2021/07/16 08:02:39;;;;;;;13.95;12.55;;;;;;;31.01;45.01;100265.75;1681313;83;21144;-64
2021/07/16 08:05:06;;;;;;;14.65;11.00;;;;;;;31.01;45.31;100269.27;1655335;83;21125;-62
2021/07/16 08:07:33;;;;;;;13.83;12.53;;;;;;;31.07;45.21;100269.59;1657040;83;21238;-63
2021/07/16 08:10:00;;;;;;;12.35;11.05;;;;;;;31.15;46.03;100268.27;1683022;83;21165;-63
2021/07/16 08:12:26;;;;;;;10.40;9.35;;;;;;;31.23;46.59;100270.48;1658464;85;21085;-63
2021/07/16 08:14:52;;;;;;;17.25;12.07;;;;;;;31.33;45.84;100267.02;1683426;83;21078;-63
2021/07/16 08:17:20;;;;;;;15.90;12.88;;;;;;;31.42;45.84;100275.48;1685398;83;21139;-62
2021/07/16 08:19:47;;;;;;;17.65;12.50;;;;;;;31.46;45.70;100273.88;1684545;83;21137;-63
2021/07/16 08:22:14;;;;;;;9.75;8.13;;;;;;;31.52;46.27;100264.67;1687433;82;21734;-63
2021/07/16 08:24:40;;;;;;;12.82;10.80;;;;;;;31.62;46.10;100274.78;1671919;83;21086;-63
2021/07/16 08:27:07;;;;;;;14.70;10.82;;;;;;;31.72;46.47;100264.49;1693274;82;21639;-59
2021/07/16 08:29:34;;;;;;;16.10;12.68;;;;;;;31.80;45.65;100262.62;1698739;82;21635;-59
2021/07/16 08:32:01;;;;;;;12.75;10.38;;;;;;;31.89;45.53;100267.80;1694711;82;21130;-64
2021/07/16 08:34:28;;;;;;;14.65;10.35;;;;;;;31.95;45.51;100265.93;1695933;82;21164;-64
2021/07/16 08:36:55;;;;;;;14.10;12.73;;;;;;;31.98;45.46;100267.56;1697731;82;21062;-63
2021/07/16 08:39:21;;;;;;;13.53;11.68;;;;;;;32.08;45.34;100267.33;1700481;83;21081;-64
2021/07/16 08:41:47;;;;;;;14.05;11.25;;;;;;;32.16;45.10;100273.61;1697283;82;21716;-62
2021/07/16 08:44:14;;;;;;;9.15;8.25;;;;;;;32.21;45.84;100263.56;1696372;82;21082;-61
2021/07/16 08:46:44;;;;;;;11.35;9.90;;;;;;;32.28;45.51;100271.47;1664388;83;21635;-63
2021/07/16 08:49:15;;;;;;;11.68;9.15;;;;;;;32.35;45.45;100269.29;1692627;82;21080;-62
2021/07/16 08:51:43;;;;;;;14.20;11.35;;;;;;;32.40;45.53;100268.48;1694071;82;21066;-63
2021/07/16 08:54:17;;;;;;;13.30;10.25;;;;;;;32.47;45.98;100268.22;1692306;82;21130;-63
2021/07/16 08:56:45;;;;;;;14.58;12.78;;;;;;;32.53;45.54;100271.19;1691140;82;21408;-62
2021/07/16 08:59:16;;;;;;;13.13;11.65;;;;;;;32.58;45.48;100270.67;1693311;82;21596;-61
2021/07/16 09:01:45;;;;;;;14.73;12.47;;;;;;;32.63;45.24;100264.41;1689178;83;21655;-61
2021/07/16 09:04:11;;;;;;;12.05;10.85;;;;;;;32.63;45.16;100268.50;1695346;82;22612;-62
2021/07/16 09:06:54;;;;;;;11.60;10.20;;;;;;;32.67;45.25;100268.24;1700135;82;21125;-62
2021/07/16 09:09:25;;;;;;;14.03;11.20;;;;;;;32.69;45.01;100271.50;1692736;82;21088;-61
2021/07/16 09:11:56;;;;;;;15.38;12.23;;;;;;;32.73;45.00;100269.05;1706170;82;21167;-61
2021/07/16 09:14:27;;;;;;;17.75;14.00;;;;;;;32.72;45.14;100273.69;1692679;83;21145;-63
2021/07/16 09:17:04;;;;;;;16.27;12.98;;;;;;;32.74;45.35;100272.05;1702401;82;21093;-61
2021/07/16 09:19:47;;;;;;;16.23;13.18;;;;;;;32.79;45.68;100269.32;1684765;82;21210;-62
2021/07/16 09:22:17;;;;;;;14.73;13.28;;;;;;;32.83;45.46;100270.95;1688674;82;21877;-62
2021/07/16 09:24:52;;;;;;;13.72;11.90;;;;;;;32.88;45.23;100264.94;1675893;83;21463;-61
2021/07/16 09:27:40;;;;;;;15.03;11.68;;;;;;;32.93;45.42;100265.48;1679521;83;21089;-62
2021/07/16 09:30:25;;;;;;;14.53;13.03;;;;;;;32.95;44.97;100264.13;1661401;83;21125;-62
2021/07/16 09:32:56;;;;;;;;;;;;;;;33.00;44.98;100258.39;1687558;83;21587;-62
2021/07/16 09:35:33;;;;;;;13.78;12.37;;;;;;;33.05;45.13;100263.30;1683943;83;21213;-62
2021/07/16 09:38:07;;;;;;;13.45;11.15;;;;;;;32.99;44.59;100256.21;1686096;83;21062;-62
2021/07/16 09:40:41;;;;;;;16.82;13.65;;;;;;;33.01;44.98;100257.30;1684077;83;21117;-62
2021/07/16 09:43:13;;;;;;;17.12;12.65;;;;;;;33.01;45.25;100260.84;1682363;83;21640;-64
2021/07/16 09:45:52;;;;;;;15.13;12.25;;;;;;;32.99;45.24;100253.48;1682998;83;21082;-63
2021/07/16 09:48:23;;;;;;;25.20;13.40;;;;;;;32.95;45.30;100251.03;1688998;83;21129;-62
2021/07/16 09:51:15;;;;;;;14.98;12.53;;;;;;;32.95;45.36;100251.03;1684597;84;21136;-64
2021/07/16 09:54:03;;;;;;;14.68;12.10;;;;;;;33.03;45.27;100248.30;1682801;83;21089;-62
2021/07/16 09:56:31;;;;;;;13.72;12.33;;;;;;;33.14;45.48;100245.83;1687006;83;21086;-64
2021/07/16 09:59:10;;;;;;;14.28;11.95;;;;;;;33.21;44.95;100253.74;1668871;83;21097;-64
2021/07/16 10:01:39;;;;;;;13.88;12.47;;;;;;;33.19;44.31;100251.81;1687339;83;21970;-63
2021/07/16 10:04:08;;;;;;;13.05;11.75;;;;;;;33.20;44.19;100248.01;1683722;83;21506;-63
2021/07/16 10:06:35;;;;;;;12.40;10.75;;;;;;;33.25;44.18;100250.16;1686857;83;21074;-62
2021/07/16 10:09:01;;;;;;;12.98;11.63;;;;;;;33.35;43.88;100246.59;1680836;84;21028;-64
2021/07/16 10:11:29;;;;;;;12.88;11.28;;;;;;;33.42;43.24;100244.93;1688439;83;21179;-64
2021/07/16 10:13:56;;;;;;;14.50;12.43;;;;;;;33.51;44.16;100239.98;1690769;83;21726;-63
2021/07/16 10:16:23;;;;;;;14.28;12.78;;;;;;;33.64;43.97;100241.83;1692027;83;21085;-65
2021/07/16 10:18:54;;;;;;;13.38;11.97;;;;;;;33.75;43.73;100239.91;1696554;83;21145;-64
2021/07/16 10:21:22;;;;;;;13.72;12.35;;;;;;;33.81;42.93;100241.48;1721340;82;21112;-62
2021/07/16 10:23:50;;;;;;;14.23;12.13;;;;;;;33.82;42.90;100237.12;1718157;82;21088;-62
2021/07/16 10:26:19;;;;;;;15.20;12.73;;;;;;;33.85;42.71;100242.02;1707771;81;21081;-62
2021/07/16 10:28:46;;;;;;;15.75;12.80;;;;;;;33.90;42.74;100236.28;1713125;81;21117;-63
2021/07/16 10:31:33;;;;;;;18.95;12.50;;;;;;;33.95;43.06;100234.32;1721699;82;21716;-63
2021/07/16 10:34:02;;;;;;;14.20;12.70;;;;;;;34.01;42.42;100240.02;1697763;82;21069;-62
2021/07/16 10:36:49;;;;;;;14.13;11.95;;;;;;;34.12;42.50;100235.86;1708956;82;21027;-63
2021/07/16 10:39:19;;;;;;;13.95;11.80;;;;;;;34.18;42.12;100233.33;1718669;81;21608;-62
2021/07/16 10:41:46;;;;;;;15.67;13.87;;;;;;;34.23;41.89;100230.06;1728748;81;21607;-63
2021/07/16 10:44:13;;;;;;;14.25;12.75;;;;;;;34.33;43.23;100225.61;1697578;82;21112;-64
2021/07/16 10:46:46;;;;;;;14.55;13.05;;;;;;;34.43;42.59;100226.88;1742662;81;21109;-64
2021/07/16 10:49:12;;;;;;;18.73;13.20;;;;;;;34.52;41.50;100219.72;1740554;81;21105;-64
2021/07/16 10:51:40;;;;;;;15.32;11.78;;;;;;;34.53;41.38;100216.42;1728062;81;21592;-64
2021/07/16 10:54:10;;;;;;;15.63;13.93;;;;;;;34.51;41.76;100213.98;1712379;82;20992;-64
2021/07/16 10:56:46;;;;;;;15.18;12.85;;;;;;;34.54;41.05;100211.23;1726425;81;21564;-63
2021/07/16 10:59:48;;;;;;;17.12;13.28;;;;;;;34.59;41.17;100209.82;1706905;82;21137;-64
2021/07/16 11:02:44;;;;;;;17.27;12.93;;;;;;;34.60;41.05;100205.44;1731331;81;21143;-65
2021/07/16 11:05:38;;;;;;;14.65;12.75;;;;;;;34.58;41.08;100204.08;1731780;81;21946;-64
2021/07/16 11:08:06;;;;;;;15.35;12.95;;;;;;;34.57;40.86;100203.84;1697541;82;21122;-64
2021/07/16 11:10:48;;;;;;;14.65;12.68;;;;;;;34.68;41.38;100197.70;1721690;81;22314;-66
2021/07/16 11:13:46;;;;;;;13.48;12.18;;;;;;;34.78;40.72;100199.83;1731965;81;21109;-65
2021/07/16 11:16:25;;;;;;;15.55;13.80;;;;;;;34.95;41.14;100188.44;1736405;81;21159;-64
2021/07/16 11:18:56;;;;;;;16.27;14.68;;;;;;;35.08;40.50;100185.53;1701413;82;21780;-64
2021/07/16 11:21:46;;;;;;;15.75;14.15;;;;;;;35.10;39.18;100189.34;1706512;82;21146;-62
2021/07/16 11:24:21;;;;;;;16.85;13.62;;;;;;;35.02;39.69;100183.98;1728794;81;21603;-63
2021/07/16 11:27:06;;;;;;;16.23;14.63;;;;;;;35.01;40.26;100181.55;1703350;83;21133;-64
2021/07/16 11:29:43;;;;;;;15.13;13.65;;;;;;;35.06;39.76;100183.66;1693391;83;21110;-62
2021/07/16 11:32:20;;;;;;;17.67;15.88;;;;;;;35.06;40.21;100180.92;1725767;81;21090;-63
2021/07/16 11:34:59;;;;;;;17.50;15.70;;;;;;;34.98;39.04;100175.53;1710612;83;21583;-63